sensor_id;sensor_type;location;lat;lon;timestamp;pressure;altitude;pressure_sealevel;temperature;humidity
78206;BME280;67480;48.920;12.880;2023-04-24T00:01:10;96167.31;;;12.79;62.73
78206;BME280;67480;48.920;12.880;2023-04-24T00:03:36;96168.16;;;12.67;63.24
78206;BME280;67480;48.920;12.880;2023-04-24T00:06:02;96175.41;;;12.63;64.16
78206;BME280;67480;48.920;12.880;2023-04-24T00:08:27;96173.69;;;12.42;64.57
78206;BME280;67480;48.920;12.880;2023-04-24T00:10:53;96173.06;;;12.33;64.90
78206;BME280;67480;48.920;12.880;2023-04-24T00:13:18;96162.28;;;12.49;64.19
78206;BME280;67480;48.920;12.880;2023-04-24T00:15:43;96167.44;;;12.54;63.79
78206;BME280;67480;48.920;12.880;2023-04-24T00:18:09;96167.69;;;12.49;64.06
78206;BME280;67480;48.920;12.880;2023-04-24T00:20:34;96156.56;;;12.50;64.14
78206;BME280;67480;48.920;12.880;2023-04-24T00:23:02;96155.00;;;12.65;63.83
78206;BME280;67480;48.920;12.880;2023-04-24T00:25:28;96154.22;;;12.65;63.63
78206;BME280;67480;48.920;12.880;2023-04-24T00:27:53;96148.84;;;12.65;63.82
78206;BME280;67480;48.920;12.880;2023-04-24T00:30:18;96146.22;;;12.68;63.74
78206;BME280;67480;48.920;12.880;2023-04-24T00:32:44;96140.22;;;12.75;63.43
78206;BME280;67480;48.920;12.880;2023-04-24T00:35:09;96136.47;;;12.64;63.36
78206;BME280;67480;48.920;12.880;2023-04-24T00:37:35;96135.34;;;12.65;63.55
78206;BME280;67480;48.920;12.880;2023-04-24T00:40:01;96139.94;;;12.48;64.07
78206;BME280;67480;48.920;12.880;2023-04-24T00:42:26;96132.91;;;12.60;63.95
78206;BME280;67480;48.920;12.880;2023-04-24T00:44:52;96132.34;;;12.54;63.89
78206;BME280;67480;48.920;12.880;2023-04-24T00:47:18;96126.19;;;12.53;64.06
78206;BME280;67480;48.920;12.880;2023-04-24T00:49:44;96134.25;;;12.38;64.43
78206;BME280;67480;48.920;12.880;2023-04-24T00:52:09;96128.50;;;12.23;65.00
78206;BME280;67480;48.920;12.880;2023-04-24T00:54:36;96133.97;;;12.27;65.06
78206;BME280;67480;48.920;12.880;2023-04-24T00:57:02;96123.09;;;12.39;64.85
78206;BME280;67480;48.920;12.880;2023-04-24T00:59:28;96120.44;;;12.55;64.34
78206;BME280;67480;48.920;12.880;2023-04-24T01:01:54;96116.00;;;12.63;64.34
78206;BME280;67480;48.920;12.880;2023-04-24T01:04:19;96114.53;;;12.65;63.59
78206;BME280;67480;48.920;12.880;2023-04-24T01:06:45;96112.94;;;12.48;64.39
78206;BME280;67480;48.920;12.880;2023-04-24T01:09:12;96114.59;;;12.37;64.54
78206;BME280;67480;48.920;12.880;2023-04-24T01:11:37;96109.78;;;12.30;65.27
78206;BME280;67480;48.920;12.880;2023-04-24T01:14:03;96107.25;;;12.38;64.78
78206;BME280;67480;48.920;12.880;2023-04-24T01:16:29;96107.59;;;12.36;64.38
78206;BME280;67480;48.920;12.880;2023-04-24T01:18:54;96108.50;;;12.40;64.49
78206;BME280;67480;48.920;12.880;2023-04-24T01:21:20;96105.16;;;12.31;65.00
78206;BME280;67480;48.920;12.880;2023-04-24T01:23:46;96098.09;;;12.26;65.68
78206;BME280;67480;48.920;12.880;2023-04-24T01:26:13;96096.03;;;12.35;65.20
78206;BME280;67480;48.920;12.880;2023-04-24T01:28:39;96100.13;;;12.29;65.21
78206;BME280;67480;48.920;12.880;2023-04-24T01:31:05;96098.44;;;12.25;65.43
78206;BME280;67480;48.920;12.880;2023-04-24T01:33:31;96096.88;;;11.95;66.23
78206;BME280;67480;48.920;12.880;2023-04-24T01:35:56;96094.06;;;11.76;66.83
78206;BME280;67480;48.920;12.880;2023-04-24T01:38:22;96090.47;;;11.72;67.14
78206;BME280;67480;48.920;12.880;2023-04-24T01:40:47;96092.06;;;11.89;66.70
78206;BME280;67480;48.920;12.880;2023-04-24T01:43:13;96086.34;;;11.90;66.29
78206;BME280;67480;48.920;12.880;2023-04-24T01:45:38;96086.81;;;12.08;65.90
78206;BME280;67480;48.920;12.880;2023-04-24T01:48:04;96089.25;;;11.97;66.08
78206;BME280;67480;48.920;12.880;2023-04-24T01:50:30;96090.94;;;11.90;66.40
78206;BME280;67480;48.920;12.880;2023-04-24T01:52:55;96088.78;;;11.67;66.83
78206;BME280;67480;48.920;12.880;2023-04-24T01:55:21;96096.19;;;11.70;66.65
78206;BME280;67480;48.920;12.880;2023-04-24T01:57:46;96090.03;;;11.57;67.20
78206;BME280;67480;48.920;12.880;2023-04-24T02:00:12;96083.53;;;11.58;67.11
78206;BME280;67480;48.920;12.880;2023-04-24T02:02:39;96090.16;;;11.61;67.11
78206;BME280;67480;48.920;12.880;2023-04-24T02:05:06;96086.78;;;11.64;67.24
78206;BME280;67480;48.920;12.880;2023-04-24T02:07:32;96082.22;;;11.80;66.62
78206;BME280;67480;48.920;12.880;2023-04-24T02:09:57;96086.41;;;11.78;66.46
78206;BME280;67480;48.920;12.880;2023-04-24T02:12:23;96071.31;;;11.89;66.62
78206;BME280;67480;48.920;12.880;2023-04-24T02:14:48;96072.50;;;11.92;66.28
78206;BME280;67480;48.920;12.880;2023-04-24T02:17:13;96066.69;;;11.90;66.56
78206;BME280;67480;48.920;12.880;2023-04-24T02:19:40;96073.50;;;11.99;66.29
78206;BME280;67480;48.920;12.880;2023-04-24T02:22:05;96069.34;;;12.02;65.90
78206;BME280;67480;48.920;12.880;2023-04-24T02:24:31;96064.03;;;12.06;65.41
78206;BME280;67480;48.920;12.880;2023-04-24T02:26:56;96053.59;;;12.04;65.32
78206;BME280;67480;48.920;12.880;2023-04-24T02:29:23;96057.06;;;12.05;65.63
78206;BME280;67480;48.920;12.880;2023-04-24T02:31:48;96056.94;;;11.85;66.40
78206;BME280;67480;48.920;12.880;2023-04-24T02:34:13;96060.72;;;11.68;66.82
78206;BME280;67480;48.920;12.880;2023-04-24T02:36:38;96064.78;;;11.62;67.05
78206;BME280;67480;48.920;12.880;2023-04-24T02:39:04;96058.72;;;11.53;67.59
78206;BME280;67480;48.920;12.880;2023-04-24T02:41:29;96058.03;;;11.68;66.71
78206;BME280;67480;48.920;12.880;2023-04-24T02:43:57;96064.63;;;11.71;67.09
78206;BME280;67480;48.920;12.880;2023-04-24T02:46:23;96056.50;;;11.55;67.38
78206;BME280;67480;48.920;12.880;2023-04-24T02:48:48;96049.03;;;11.36;67.19
78206;BME280;67480;48.920;12.880;2023-04-24T02:51:13;96054.38;;;11.48;67.18
78206;BME280;67480;48.920;12.880;2023-04-24T02:53:38;96054.75;;;11.22;67.33
78206;BME280;67480;48.920;12.880;2023-04-24T02:56:04;96046.38;;;11.11;67.68
78206;BME280;67480;48.920;12.880;2023-04-24T02:58:29;96044.00;;;11.22;68.96
78206;BME280;67480;48.920;12.880;2023-04-24T03:00:55;96044.47;;;11.24;68.52
78206;BME280;67480;48.920;12.880;2023-04-24T03:03:21;96040.38;;;11.30;68.75
78206;BME280;67480;48.920;12.880;2023-04-24T03:05:46;96046.19;;;11.44;67.83
78206;BME280;67480;48.920;12.880;2023-04-24T03:08:12;96043.06;;;11.42;67.91
78206;BME280;67480;48.920;12.880;2023-04-24T03:10:37;96038.75;;;11.13;68.66
78206;BME280;67480;48.920;12.880;2023-04-24T03:13:03;96035.56;;;11.23;68.47
78206;BME280;67480;48.920;12.880;2023-04-24T03:15:28;96039.47;;;11.38;68.36
78206;BME280;67480;48.920;12.880;2023-04-24T03:17:54;96034.13;;;11.26;68.14
78206;BME280;67480;48.920;12.880;2023-04-24T03:20:20;96033.00;;;11.27;67.84
78206;BME280;67480;48.920;12.880;2023-04-24T03:22:45;96025.78;;;11.31;68.03
78206;BME280;67480;48.920;12.880;2023-04-24T03:25:10;96032.53;;;11.25;68.63
78206;BME280;67480;48.920;12.880;2023-04-24T03:27:36;96029.56;;;11.14;69.02
78206;BME280;67480;48.920;12.880;2023-04-24T03:30:02;96034.91;;;11.27;68.80
78206;BME280;67480;48.920;12.880;2023-04-24T03:32:28;96032.84;;;11.36;68.52
78206;BME280;67480;48.920;12.880;2023-04-24T03:34:53;96032.75;;;11.32;68.85
78206;BME280;67480;48.920;12.880;2023-04-24T03:37:18;96031.16;;;11.43;68.18
78206;BME280;67480;48.920;12.880;2023-04-24T03:39:43;96031.69;;;11.49;68.05
78206;BME280;67480;48.920;12.880;2023-04-24T03:42:09;96033.81;;;11.56;68.21
78206;BME280;67480;48.920;12.880;2023-04-24T03:44:35;96041.09;;;11.55;68.06
78206;BME280;67480;48.920;12.880;2023-04-24T03:47:00;96042.53;;;11.65;67.71
78206;BME280;67480;48.920;12.880;2023-04-24T03:49:26;96047.50;;;11.51;67.88
78206;BME280;67480;48.920;12.880;2023-04-24T03:51:51;96045.59;;;11.51;68.61
78206;BME280;67480;48.920;12.880;2023-04-24T03:54:18;96048.25;;;11.64;67.52
78206;BME280;67480;48.920;12.880;2023-04-24T03:56:43;96045.84;;;11.46;68.23
78206;BME280;67480;48.920;12.880;2023-04-24T03:59:08;96044.63;;;11.43;68.34
78206;BME280;67480;48.920;12.880;2023-04-24T04:01:34;96058.63;;;11.49;68.35
78206;BME280;67480;48.920;12.880;2023-04-24T04:04:11;96051.19;;;11.58;67.84
78206;BME280;67480;48.920;12.880;2023-04-24T04:06:36;96047.28;;;11.56;68.10
78206;BME280;67480;48.920;12.880;2023-04-24T04:09:02;96047.31;;;11.43;68.31
78206;BME280;67480;48.920;12.880;2023-04-24T04:11:28;96053.59;;;11.48;68.08
78206;BME280;67480;48.920;12.880;2023-04-24T04:13:53;96056.59;;;11.58;67.95
78206;BME280;67480;48.920;12.880;2023-04-24T04:16:18;96069.03;;;11.10;68.60
78206;BME280;67480;48.920;12.880;2023-04-24T04:18:44;96061.72;;;11.11;68.99
78206;BME280;67480;48.920;12.880;2023-04-24T04:21:10;96066.00;;;11.12;69.17
78206;BME280;67480;48.920;12.880;2023-04-24T04:23:35;96072.75;;;11.05;69.24
78206;BME280;67480;48.920;12.880;2023-04-24T04:26:01;96071.06;;;11.01;69.35
78206;BME280;67480;48.920;12.880;2023-04-24T04:28:27;96070.97;;;10.97;69.59
78206;BME280;67480;48.920;12.880;2023-04-24T04:30:53;96080.03;;;10.80;70.05
78206;BME280;67480;48.920;12.880;2023-04-24T04:33:23;96071.25;;;10.71;70.46
78206;BME280;67480;48.920;12.880;2023-04-24T04:35:48;96080.59;;;10.74;70.12
78206;BME280;67480;48.920;12.880;2023-04-24T04:38:15;96083.16;;;10.70;70.20
78206;BME280;67480;48.920;12.880;2023-04-24T04:40:42;96080.81;;;10.68;70.83
78206;BME280;67480;48.920;12.880;2023-04-24T04:43:08;96082.03;;;10.59;71.06
78206;BME280;67480;48.920;12.880;2023-04-24T04:45:33;96081.16;;;10.67;70.38
78206;BME280;67480;48.920;12.880;2023-04-24T04:47:59;96076.09;;;10.65;70.55
78206;BME280;67480;48.920;12.880;2023-04-24T04:50:28;96083.38;;;10.77;70.54
78206;BME280;67480;48.920;12.880;2023-04-24T04:52:53;96083.63;;;10.84;70.08
78206;BME280;67480;48.920;12.880;2023-04-24T04:55:19;96074.88;;;10.87;70.04
78206;BME280;67480;48.920;12.880;2023-04-24T04:57:45;96084.28;;;10.81;70.09
78206;BME280;67480;48.920;12.880;2023-04-24T05:00:12;96081.75;;;10.85;69.93
78206;BME280;67480;48.920;12.880;2023-04-24T05:02:38;96092.50;;;10.97;69.27
78206;BME280;67480;48.920;12.880;2023-04-24T05:05:04;96087.56;;;10.99;69.35
78206;BME280;67480;48.920;12.880;2023-04-24T05:07:29;96091.25;;;10.82;69.16
78206;BME280;67480;48.920;12.880;2023-04-24T05:09:54;96091.25;;;10.82;69.55
78206;BME280;67480;48.920;12.880;2023-04-24T05:12:20;96091.72;;;10.97;68.85
78206;BME280;67480;48.920;12.880;2023-04-24T05:14:45;96096.44;;;11.00;68.96
78206;BME280;67480;48.920;12.880;2023-04-24T05:17:10;96098.53;;;10.94;68.84
78206;BME280;67480;48.920;12.880;2023-04-24T05:19:36;96097.31;;;11.04;68.47
78206;BME280;67480;48.920;12.880;2023-04-24T05:22:03;96096.31;;;11.09;68.49
78206;BME280;67480;48.920;12.880;2023-04-24T05:24:30;96101.00;;;11.24;68.45
78206;BME280;67480;48.920;12.880;2023-04-24T05:26:56;96098.91;;;11.17;67.99
78206;BME280;67480;48.920;12.880;2023-04-24T05:29:22;96100.22;;;11.23;68.26
78206;BME280;67480;48.920;12.880;2023-04-24T05:31:47;96104.59;;;10.91;68.23
78206;BME280;67480;48.920;12.880;2023-04-24T05:34:12;96105.16;;;10.84;68.59
78206;BME280;67480;48.920;12.880;2023-04-24T05:36:38;96105.75;;;10.90;68.88
78206;BME280;67480;48.920;12.880;2023-04-24T05:39:03;96106.88;;;11.01;68.37
78206;BME280;67480;48.920;12.880;2023-04-24T05:41:30;96104.72;;;11.07;68.32
78206;BME280;67480;48.920;12.880;2023-04-24T05:43:55;96107.31;;;11.16;67.94
78206;BME280;67480;48.920;12.880;2023-04-24T05:46:20;96108.31;;;11.11;67.92
78206;BME280;67480;48.920;12.880;2023-04-24T05:48:46;96103.03;;;11.15;66.94
78206;BME280;67480;48.920;12.880;2023-04-24T05:51:11;96109.88;;;11.24;67.29
78206;BME280;67480;48.920;12.880;2023-04-24T05:53:36;96110.53;;;11.34;67.85
78206;BME280;67480;48.920;12.880;2023-04-24T05:56:01;96108.38;;;11.52;66.69
78206;BME280;67480;48.920;12.880;2023-04-24T05:58:27;96105.00;;;11.55;66.07
78206;BME280;67480;48.920;12.880;2023-04-24T06:00:52;96106.78;;;11.63;66.07
78206;BME280;67480;48.920;12.880;2023-04-24T06:03:18;96115.22;;;11.49;66.50
78206;BME280;67480;48.920;12.880;2023-04-24T06:05:43;96110.06;;;11.32;66.53
78206;BME280;67480;48.920;12.880;2023-04-24T06:08:09;96118.38;;;11.39;66.46
78206;BME280;67480;48.920;12.880;2023-04-24T06:10:35;96119.94;;;11.52;66.79
78206;BME280;67480;48.920;12.880;2023-04-24T06:13:00;96113.84;;;11.55;66.25
78206;BME280;67480;48.920;12.880;2023-04-24T06:15:29;96115.28;;;11.65;66.59
78206;BME280;67480;48.920;12.880;2023-04-24T06:17:56;96119.84;;;11.77;66.21
78206;BME280;67480;48.920;12.880;2023-04-24T06:20:21;96123.66;;;11.88;66.16
78206;BME280;67480;48.920;12.880;2023-04-24T06:22:47;96121.53;;;11.82;65.63
78206;BME280;67480;48.920;12.880;2023-04-24T06:25:12;96133.25;;;11.73;65.89
78206;BME280;67480;48.920;12.880;2023-04-24T06:27:37;96125.50;;;11.72;66.22
78206;BME280;67480;48.920;12.880;2023-04-24T06:30:03;96134.19;;;11.53;67.37
78206;BME280;67480;48.920;12.880;2023-04-24T06:32:28;96131.06;;;11.38;67.25
78206;BME280;67480;48.920;12.880;2023-04-24T06:34:55;96131.06;;;11.38;67.01
78206;BME280;67480;48.920;12.880;2023-04-24T06:37:21;96131.97;;;11.18;67.85
78206;BME280;67480;48.920;12.880;2023-04-24T06:39:46;96136.03;;;11.24;67.77
78206;BME280;67480;48.920;12.880;2023-04-24T06:42:12;96135.09;;;11.44;67.44
78206;BME280;67480;48.920;12.880;2023-04-24T06:44:37;96136.34;;;11.10;66.52
78206;BME280;67480;48.920;12.880;2023-04-24T06:47:14;96136.69;;;11.09;65.83
78206;BME280;67480;48.920;12.880;2023-04-24T06:49:40;96137.47;;;10.84;66.71
78206;BME280;67480;48.920;12.880;2023-04-24T06:52:06;96141.59;;;10.82;66.48
78206;BME280;67480;48.920;12.880;2023-04-24T06:54:31;96138.38;;;11.13;66.86
78206;BME280;67480;48.920;12.880;2023-04-24T06:56:57;96137.25;;;11.27;65.76
78206;BME280;67480;48.920;12.880;2023-04-24T06:59:23;96139.13;;;11.38;65.07
78206;BME280;67480;48.920;12.880;2023-04-24T07:01:49;96148.13;;;11.30;65.43
78206;BME280;67480;48.920;12.880;2023-04-24T07:04:14;96147.38;;;11.17;65.08
78206;BME280;67480;48.920;12.880;2023-04-24T07:06:40;96153.19;;;11.19;66.04
78206;BME280;67480;48.920;12.880;2023-04-24T07:09:05;96140.38;;;11.29;65.00
78206;BME280;67480;48.920;12.880;2023-04-24T07:11:30;96147.09;;;11.47;65.07
78206;BME280;67480;48.920;12.880;2023-04-24T07:13:56;96153.28;;;11.48;64.57
78206;BME280;67480;48.920;12.880;2023-04-24T07:16:22;96146.00;;;11.36;65.72
78206;BME280;67480;48.920;12.880;2023-04-24T07:18:47;96152.41;;;11.43;65.13
78206;BME280;67480;48.920;12.880;2023-04-24T07:21:12;96148.56;;;11.57;64.22
78206;BME280;67480;48.920;12.880;2023-04-24T07:23:38;96153.19;;;11.19;65.08
78206;BME280;67480;48.920;12.880;2023-04-24T07:26:03;96153.41;;;11.39;65.34
78206;BME280;67480;48.920;12.880;2023-04-24T07:28:29;96149.03;;;11.47;64.91
78206;BME280;67480;48.920;12.880;2023-04-24T07:30:57;96142.78;;;11.71;64.21
78206;BME280;67480;48.920;12.880;2023-04-24T07:33:23;96149.91;;;11.63;64.05
78206;BME280;67480;48.920;12.880;2023-04-24T07:35:49;96157.66;;;11.65;63.07
78206;BME280;67480;48.920;12.880;2023-04-24T07:38:14;96150.66;;;11.76;63.72
78206;BME280;67480;48.920;12.880;2023-04-24T07:40:39;96147.38;;;11.83;62.88
78206;BME280;67480;48.920;12.880;2023-04-24T07:43:05;96149.81;;;11.47;64.00
78206;BME280;67480;48.920;12.880;2023-04-24T07:45:30;96148.66;;;11.48;65.11
78206;BME280;67480;48.920;12.880;2023-04-24T07:47:56;96160.34;;;11.52;64.14
78206;BME280;67480;48.920;12.880;2023-04-24T07:50:21;96155.16;;;11.59;64.01
78206;BME280;67480;48.920;12.880;2023-04-24T07:52:47;96160.72;;;11.79;63.91
78206;BME280;67480;48.920;12.880;2023-04-24T07:55:12;96163.47;;;11.67;63.34
78206;BME280;67480;48.920;12.880;2023-04-24T07:57:38;96158.91;;;11.42;63.72
78206;BME280;67480;48.920;12.880;2023-04-24T08:00:04;96160.88;;;11.58;63.88
78206;BME280;67480;48.920;12.880;2023-04-24T08:02:31;96164.69;;;11.69;63.00
78206;BME280;67480;48.920;12.880;2023-04-24T08:04:56;96173.25;;;11.59;63.45
78206;BME280;67480;48.920;12.880;2023-04-24T08:07:23;96168.59;;;11.84;62.86
78206;BME280;67480;48.920;12.880;2023-04-24T08:09:48;96169.91;;;11.90;62.02
78206;BME280;67480;48.920;12.880;2023-04-24T08:12:13;96170.41;;;11.80;62.51
78206;BME280;67480;48.920;12.880;2023-04-24T08:14:39;96176.72;;;11.72;63.03
78206;BME280;67480;48.920;12.880;2023-04-24T08:17:04;96172.22;;;11.51;63.09
78206;BME280;67480;48.920;12.880;2023-04-24T08:19:29;96181.75;;;11.61;62.96
78206;BME280;67480;48.920;12.880;2023-04-24T08:21:55;96174.16;;;11.38;63.15
78206;BME280;67480;48.920;12.880;2023-04-24T08:24:20;96171.81;;;11.37;63.28
78206;BME280;67480;48.920;12.880;2023-04-24T08:26:46;96178.44;;;11.27;63.51
78206;BME280;67480;48.920;12.880;2023-04-24T08:29:11;96173.03;;;11.39;64.28
78206;BME280;67480;48.920;12.880;2023-04-24T08:31:36;96177.03;;;11.70;63.93
78206;BME280;67480;48.920;12.880;2023-04-24T08:34:02;96174.09;;;11.88;62.29
78206;BME280;67480;48.920;12.880;2023-04-24T08:36:28;96174.03;;;12.00;62.24
78206;BME280;67480;48.920;12.880;2023-04-24T08:38:53;96174.03;;;12.12;62.18
78206;BME280;67480;48.920;12.880;2023-04-24T08:41:19;96176.56;;;12.33;61.36
78206;BME280;67480;48.920;12.880;2023-04-24T08:43:47;96181.25;;;12.37;60.61
78206;BME280;67480;48.920;12.880;2023-04-24T08:46:13;96171.94;;;12.34;61.38
78206;BME280;67480;48.920;12.880;2023-04-24T08:48:39;96177.50;;;12.69;61.37
78206;BME280;67480;48.920;12.880;2023-04-24T08:51:07;96175.56;;;12.70;59.73
78206;BME280;67480;48.920;12.880;2023-04-24T08:53:33;96177.75;;;12.36;60.86
78206;BME280;67480;48.920;12.880;2023-04-24T08:55:58;96169.31;;;12.38;62.25
78206;BME280;67480;48.920;12.880;2023-04-24T08:58:27;96172.84;;;12.54;61.31
78206;BME280;67480;48.920;12.880;2023-04-24T09:00:54;96170.84;;;12.23;61.62
78206;BME280;67480;48.920;12.880;2023-04-24T09:03:20;96167.91;;;11.87;63.87
78206;BME280;67480;48.920;12.880;2023-04-24T09:05:47;96179.41;;;11.72;64.67
78206;BME280;67480;48.920;12.880;2023-04-24T09:08:13;96171.66;;;11.83;64.70
78206;BME280;67480;48.920;12.880;2023-04-24T09:10:40;96177.47;;;11.85;65.28
78206;BME280;67480;48.920;12.880;2023-04-24T09:13:05;96170.22;;;12.01;65.08
78206;BME280;67480;48.920;12.880;2023-04-24T09:15:31;96175.66;;;12.29;63.80
78206;BME280;67480;48.920;12.880;2023-04-24T09:17:57;96169.47;;;12.73;63.40
78206;BME280;67480;48.920;12.880;2023-04-24T09:20:22;96176.72;;;13.01;62.48
78206;BME280;67480;48.920;12.880;2023-04-24T09:22:47;96177.94;;;12.87;61.85
78206;BME280;67480;48.920;12.880;2023-04-24T09:25:13;96175.06;;;12.36;63.39
78206;BME280;67480;48.920;12.880;2023-04-24T09:27:43;96178.13;;;12.79;62.50
78206;BME280;67480;48.920;12.880;2023-04-24T09:30:10;96176.72;;;13.17;62.04
78206;BME280;67480;48.920;12.880;2023-04-24T09:32:36;96176.47;;;12.74;61.61
78206;BME280;67480;48.920;12.880;2023-04-24T09:37:40;96177.53;;;13.33;60.94
78206;BME280;67480;48.920;12.880;2023-04-24T09:40:26;96177.19;;;13.35;60.37
78206;BME280;67480;48.920;12.880;2023-04-24T09:42:54;96167.81;;;13.84;58.78
78206;BME280;67480;48.920;12.880;2023-04-24T09:45:22;96170.97;;;14.25;57.28
78206;BME280;67480;48.920;12.880;2023-04-24T09:47:52;96172.75;;;14.56;54.78
78206;BME280;67480;48.920;12.880;2023-04-24T09:50:19;96167.13;;;14.88;55.63
78206;BME280;67480;48.920;12.880;2023-04-24T09:52:47;96158.81;;;15.23;53.39
78206;BME280;67480;48.920;12.880;2023-04-24T09:55:21;96149.44;;;14.94;54.72
78206;BME280;67480;48.920;12.880;2023-04-24T09:58:00;96175.31;;;14.10;56.05
78206;BME280;67480;48.920;12.880;2023-04-24T10:00:27;96206.31;;;11.96;67.92
78206;BME280;67480;48.920;12.880;2023-04-24T10:02:58;96221.75;;;10.76;70.63
78206;BME280;67480;48.920;12.880;2023-04-24T10:05:27;96211.22;;;10.38;71.73
78206;BME280;67480;48.920;12.880;2023-04-24T10:07:56;96196.16;;;10.03;71.63
78206;BME280;67480;48.920;12.880;2023-04-24T10:10:22;96201.16;;;9.92;72.91
78206;BME280;67480;48.920;12.880;2023-04-24T10:12:48;96205.06;;;9.95;69.78
78206;BME280;67480;48.920;12.880;2023-04-24T10:15:15;96194.81;;;10.30;71.98
78206;BME280;67480;48.920;12.880;2023-04-24T10:17:44;96203.91;;;11.05;70.17
78206;BME280;67480;48.920;12.880;2023-04-24T10:20:11;96209.84;;;11.60;66.67
78206;BME280;67480;48.920;12.880;2023-04-24T10:22:36;96211.25;;;11.94;66.11
78206;BME280;67480;48.920;12.880;2023-04-24T10:25:04;96209.66;;;12.46;65.25
78206;BME280;67480;48.920;12.880;2023-04-24T10:27:32;96206.28;;;12.49;63.48
78206;BME280;67480;48.920;12.880;2023-04-24T10:29:58;96215.19;;;12.66;61.26
78206;BME280;67480;48.920;12.880;2023-04-24T10:32:23;96216.69;;;12.79;61.41
78206;BME280;67480;48.920;12.880;2023-04-24T10:34:49;96213.00;;;12.27;58.30
78206;BME280;67480;48.920;12.880;2023-04-24T10:37:14;96222.16;;;11.98;58.75
78206;BME280;67480;48.920;12.880;2023-04-24T10:39:40;96220.47;;;11.93;58.79
78206;BME280;67480;48.920;12.880;2023-04-24T10:42:15;96216.91;;;11.89;58.74
78206;BME280;67480;48.920;12.880;2023-04-24T10:44:41;96219.53;;;12.55;57.42
78206;BME280;67480;48.920;12.880;2023-04-24T10:47:15;96227.13;;;13.57;55.52
78206;BME280;67480;48.920;12.880;2023-04-24T10:49:40;96230.09;;;15.04;51.82
78206;BME280;67480;48.920;12.880;2023-04-24T10:52:06;96235.84;;;18.46;43.86
78206;BME280;67480;48.920;12.880;2023-04-24T10:54:35;96250.81;;;20.10;38.75
78206;BME280;67480;48.920;12.880;2023-04-24T10:59:45;96240.63;;;18.96;40.42
78206;BME280;67480;48.920;12.880;2023-04-24T11:02:10;96237.91;;;18.04;41.09
78206;BME280;67480;48.920;12.880;2023-04-24T11:04:39;96241.13;;;17.17;44.92
78206;BME280;67480;48.920;12.880;2023-04-24T11:07:05;96235.88;;;16.97;46.77
78206;BME280;67480;48.920;12.880;2023-04-24T11:09:31;96237.84;;;16.63;46.08
78206;BME280;67480;48.920;12.880;2023-04-24T11:12:08;96232.69;;;16.50;45.38
78206;BME280;67480;48.920;12.880;2023-04-24T11:15:00;96229.63;;;16.55;46.27
78206;BME280;67480;48.920;12.880;2023-04-24T11:17:33;96229.16;;;16.50;46.16
78206;BME280;67480;48.920;12.880;2023-04-24T11:20:07;96229.63;;;16.25;46.23
78206;BME280;67480;48.920;12.880;2023-04-24T11:22:34;96227.69;;;16.26;47.44
78206;BME280;67480;48.920;12.880;2023-04-24T11:25:03;96225.97;;;16.41;46.15
78206;BME280;67480;48.920;12.880;2023-04-24T11:27:30;96238.88;;;16.51;46.21
78206;BME280;67480;48.920;12.880;2023-04-24T11:35:01;96234.63;;;14.97;48.64
78206;BME280;67480;48.920;12.880;2023-04-24T11:37:30;96239.09;;;15.08;48.66
78206;BME280;67480;48.920;12.880;2023-04-24T11:39:58;96244.47;;;16.62;46.94
78206;BME280;67480;48.920;12.880;2023-04-24T11:42:24;96234.63;;;18.36;42.70
78206;BME280;67480;48.920;12.880;2023-04-24T11:44:52;96247.06;;;18.41;41.71
78206;BME280;67480;48.920;12.880;2023-04-24T11:47:18;96229.47;;;17.16;42.86
78206;BME280;67480;48.920;12.880;2023-04-24T11:49:43;96231.69;;;15.78;46.99
78206;BME280;67480;48.920;12.880;2023-04-24T11:52:08;96223.91;;;14.81;47.69
78206;BME280;67480;48.920;12.880;2023-04-24T11:54:34;96229.22;;;15.20;47.91
78206;BME280;67480;48.920;12.880;2023-04-24T11:57:04;96232.56;;;16.73;43.90
78206;BME280;67480;48.920;12.880;2023-04-24T11:59:30;96230.25;;;17.17;43.41
78206;BME280;67480;48.920;12.880;2023-04-24T12:01:55;96227.47;;;19.55;39.94
78206;BME280;67480;48.920;12.880;2023-04-24T12:04:20;96228.13;;;24.08;29.53
78206;BME280;67480;48.920;12.880;2023-04-24T12:07:02;96243.84;;;22.44;34.16
78206;BME280;67480;48.920;12.880;2023-04-24T12:09:28;96242.06;;;24.98;31.12
78206;BME280;67480;48.920;12.880;2023-04-24T12:11:56;96250.69;;;25.53;29.23
78206;BME280;67480;48.920;12.880;2023-04-24T12:14:22;96256.44;;;26.08;26.25
78206;BME280;67480;48.920;12.880;2023-04-24T12:16:48;96253.91;;;28.80;24.85
78206;BME280;67480;48.920;12.880;2023-04-24T12:19:22;96262.53;;;29.94;23.71
78206;BME280;67480;48.920;12.880;2023-04-24T12:22:04;96244.03;;;27.64;24.15
78206;BME280;67480;48.920;12.880;2023-04-24T12:24:31;96241.03;;;26.52;26.08
78206;BME280;67480;48.920;12.880;2023-04-24T12:26:57;96247.75;;;22.78;30.63
78206;BME280;67480;48.920;12.880;2023-04-24T12:29:23;96245.44;;;19.81;34.93
78206;BME280;67480;48.920;12.880;2023-04-24T12:31:50;96236.53;;;18.28;37.80
78206;BME280;67480;48.920;12.880;2023-04-24T12:34:19;96245.78;;;16.79;39.08
78206;BME280;67480;48.920;12.880;2023-04-24T12:36:46;96262.53;;;15.67;41.34
78206;BME280;67480;48.920;12.880;2023-04-24T12:39:15;96259.66;;;14.90;40.70
78206;BME280;67480;48.920;12.880;2023-04-24T12:42:01;96272.78;;;14.13;42.31
78206;BME280;67480;48.920;12.880;2023-04-24T12:44:30;96293.75;;;13.21;46.94
78206;BME280;67480;48.920;12.880;2023-04-24T12:46:56;96306.50;;;12.64;49.85
78206;BME280;67480;48.920;12.880;2023-04-24T12:49:22;96313.06;;;12.63;51.18
78206;BME280;67480;48.920;12.880;2023-04-24T12:51:47;96309.78;;;12.16;53.39
78206;BME280;67480;48.920;12.880;2023-04-24T12:54:12;96305.31;;;11.96;54.50
78206;BME280;67480;48.920;12.880;2023-04-24T12:56:38;96304.06;;;11.93;54.57